createdAt,value
2022-08-03T00:00:48.902Z,100375.59
2022-08-03T00:03:18.588Z,100374.34
2022-08-03T00:06:04.808Z,100377.91
2022-08-03T00:08:40.100Z,100375.09
2022-08-03T00:11:10.163Z,100375.09
2022-08-03T00:13:39.817Z,100369.72
2022-08-03T00:16:13.321Z,100368.75
2022-08-03T00:18:43.352Z,100364.34
2022-08-03T00:21:12.948Z,100371.28
2022-08-03T00:23:51.751Z,100368.47
2022-08-03T00:26:22.286Z,100367.59
2022-08-03T00:28:52.144Z,100359.81
2022-08-03T00:31:39.915Z,100366.41
2022-08-03T00:34:14.004Z,100361.72
2022-08-03T00:36:43.616Z,100356.06
2022-08-03T00:39:13.189Z,100357.56
2022-08-03T00:41:42.785Z,100362.72
2022-08-03T00:44:12.423Z,100361.13
2022-08-03T00:46:44.604Z,100359.53
2022-08-03T00:49:14.263Z,100369.56
2022-08-03T00:51:43.870Z,100354.69
2022-08-03T00:54:13.586Z,100357.63
2022-08-03T00:56:59.804Z,100357.03
2022-08-03T00:59:30.388Z,100356.41
2022-08-03T01:02:02.704Z,100355.09
2022-08-03T01:04:32.316Z,100353.75
2022-08-03T01:07:11.145Z,100352.28
2022-08-03T01:09:45.949Z,100349.13
2022-08-03T01:12:19.714Z,100353.16
2022-08-03T01:14:53.525Z,100353.53
2022-08-03T01:17:26.202Z,100351.22
2022-08-03T01:20:00.543Z,100346.94
2022-08-03T01:22:58.959Z,100347.81
2022-08-03T01:25:37.528Z,100345.25
2022-08-03T01:28:18.060Z,100346.34
2022-08-03T01:30:51.819Z,100350.13
2022-08-03T01:33:25.485Z,100348.63
2022-08-03T01:35:58.171Z,100347.31
2022-08-03T01:38:31.938Z,100349.50
2022-08-03T01:41:06.242Z,100342.78
2022-08-03T01:44:27.263Z,100338.63
2022-08-03T01:46:29.447Z,100353.28
2022-08-03T01:49:00.195Z,100345.56
2022-08-03T01:52:03.246Z,100347.53
2022-08-03T01:54:22.037Z,100338.84
2022-08-03T01:56:52.412Z,100338.97
2022-08-03T01:59:22.385Z,100341.78
2022-08-03T02:02:28.592Z,100330.34
2022-08-03T02:04:45.824Z,100338.38
2022-08-03T02:07:15.890Z,100333.03
2022-08-03T02:09:47.289Z,100336.66
2022-08-03T02:12:18.160Z,100337.63
2022-08-03T02:14:49.741Z,100333.25
2022-08-03T02:17:39.434Z,100333.34
2022-08-03T02:20:10.945Z,100337.75
2022-08-03T02:22:42.831Z,100333.03
2022-08-03T02:25:15.676Z,100334.72
2022-08-03T02:27:50.651Z,100338.13
2022-08-03T02:30:21.047Z,100337.16
2022-08-03T02:32:57.579Z,100333.38
2022-08-03T02:35:29.682Z,100328.75
2022-08-03T02:38:02.927Z,100328.63
2022-08-03T02:40:33.587Z,100328.00
2022-08-03T02:43:05.684Z,100330.81
2022-08-03T02:45:36.033Z,100326.66
2022-08-03T02:48:09.851Z,100328.75
2022-08-03T02:50:39.944Z,100330.94
2022-08-03T02:53:10.095Z,100324.94
2022-08-03T02:55:43.117Z,100326.91
2022-08-03T02:58:16.388Z,100330.56
2022-08-03T03:00:47.143Z,100321.66
2022-08-03T03:03:19.367Z,100324.09
2022-08-03T03:05:54.490Z,100331.19
2022-08-03T03:08:28.375Z,100321.53
2022-08-03T03:10:59.539Z,100323.47
2022-08-03T03:13:30.580Z,100323.97
2022-08-03T03:16:02.748Z,100325.28
2022-08-03T03:18:36.267Z,100332.72
2022-08-03T03:21:06.960Z,100331.25
2022-08-03T03:23:37.973Z,100327.81
2022-08-03T03:26:08.230Z,100335.13
2022-08-03T03:28:39.743Z,100335.25
2022-08-03T03:31:09.811Z,100335.38
2022-08-03T03:33:42.215Z,100328.28
2022-08-03T03:36:12.832Z,100333.41
2022-08-03T03:38:42.408Z,100323.19
2022-08-03T03:41:13.127Z,100329.91
2022-08-03T03:43:42.805Z,100330.66
2022-08-03T03:46:15.344Z,100328.81
2022-08-03T03:48:47.935Z,100322.50
2022-08-03T03:51:18.043Z,100331.25
2022-08-03T03:53:58.876Z,100334.69
2022-08-03T03:56:29.099Z,100335.66
2022-08-03T03:58:59.024Z,100330.16
2022-08-03T04:01:28.610Z,100334.44
2022-08-03T04:04:20.739Z,100329.59
2022-08-03T04:07:02.981Z,100334.56
2022-08-03T04:09:45.477Z,100336.88
2022-08-03T04:12:15.354Z,100340.31
2022-08-03T04:14:45.432Z,100335.69
2022-08-03T04:17:15.751Z,100340.81
2022-08-03T04:19:51.411Z,100340.69
2022-08-03T04:22:22.602Z,100338.72
2022-08-03T04:24:56.264Z,100338.50
2022-08-03T04:27:29.096Z,100338.25
2022-08-03T04:29:59.955Z,100339.72
2022-08-03T04:32:29.913Z,100342.16
2022-08-03T04:35:02.194Z,100344.72
2022-08-03T04:37:37.751Z,100346.31
2022-08-03T04:40:11.635Z,100353.25
2022-08-03T04:42:40.995Z,100349.50
2022-08-03T04:45:11.553Z,100351.19
2022-08-03T04:47:41.765Z,100350.94
2022-08-03T04:50:19.426Z,100348.75
2022-08-03T04:53:06.549Z,100348.16
2022-08-03T04:55:37.751Z,100352.81
2022-08-03T04:58:07.552Z,100352.81
2022-08-03T05:00:37.318Z,100346.66
2022-08-03T05:03:23.612Z,100347.38
2022-08-03T05:06:09.773Z,100356.00
2022-08-03T05:08:46.286Z,100347.78
2022-08-03T05:11:16.872Z,100355.81
2022-08-03T05:13:47.559Z,100359.31
2022-08-03T05:16:17.600Z,100362.97
2022-08-03T05:18:47.655Z,100358.50
2022-08-03T05:21:19.824Z,100357.00
2022-08-03T05:23:49.376Z,100365.28
2022-08-03T05:26:18.949Z,100366.59
2022-08-03T05:28:50.807Z,100360.94
2022-08-03T05:31:21.599Z,100368.50
2022-08-03T05:33:51.583Z,100369.81
2022-08-03T05:36:23.791Z,100366.47
2022-08-03T05:38:53.812Z,100363.97
2022-08-03T05:41:36.602Z,100368.53
2022-08-03T05:44:07.662Z,100370.72
2022-08-03T05:46:37.281Z,100360.25
2022-08-03T05:49:07.366Z,100361.56
2022-08-03T05:51:39.895Z,100369.06
2022-08-03T05:54:09.513Z,100363.16
2022-08-03T05:56:40.997Z,100360.78
2022-08-03T05:59:35.706Z,100360.09
2022-08-03T06:02:00.211Z,100356.56
2022-08-03T06:04:29.883Z,100359.44
2022-08-03T06:07:02.034Z,100364.00
2022-08-03T06:10:33.196Z,100361.44
2022-08-03T06:12:22.019Z,100364.78
2022-08-03T06:14:51.560Z,100372.72
2022-08-03T06:17:21.188Z,100360.78
2022-08-03T06:19:50.880Z,100369.59
2022-08-03T06:22:24.375Z,100372.00
2022-08-03T06:24:56.862Z,100369.56
2022-08-03T06:27:36.440Z,100367.84
2022-08-03T06:30:07.254Z,100368.56
2022-08-03T06:32:36.820Z,100372.19
2022-08-03T06:35:06.990Z,100362.38
2022-08-03T06:37:48.209Z,100367.25
2022-08-03T06:40:24.433Z,100361.34
2022-08-03T06:42:54.316Z,100365.69
2022-08-03T06:45:24.059Z,100367.34
2022-08-03T06:48:03.367Z,100363.84
2022-08-03T06:50:33.262Z,100366.38
2022-08-03T06:53:05.990Z,100364.16
2022-08-03T06:55:35.737Z,100370.81
2022-08-03T06:58:12.032Z,100366.28
2022-08-03T07:00:41.639Z,100367.50
2022-08-03T07:03:11.197Z,100369.22
2022-08-03T07:05:41.321Z,100364.97
2022-08-03T07:08:13.526Z,100361.59
2022-08-03T07:10:43.189Z,100365.13
2022-08-03T07:13:12.868Z,100362.38
2022-08-03T07:15:55.617Z,100365.28
2022-08-03T07:18:29.518Z,100365.72
2022-08-03T07:20:59.638Z,100369.88
2022-08-03T07:23:31.780Z,100368.84
2022-08-03T07:26:01.375Z,100370.09
2022-08-03T07:28:30.963Z,100376.97
2022-08-03T07:31:00.539Z,100376.78
2022-08-03T07:33:30.180Z,100376.78
2022-08-03T07:35:59.760Z,100370.41
2022-08-03T07:38:32.562Z,100373.41
2022-08-03T07:41:02.193Z,100371.50
2022-08-03T07:43:31.809Z,100371.94
2022-08-03T07:46:01.421Z,100361.66
2022-08-03T07:48:31.097Z,100379.97
2022-08-03T07:51:00.712Z,100383.59
2022-08-03T07:53:32.965Z,100369.66
2022-08-03T07:56:11.414Z,100371.72
2022-08-03T07:58:41.152Z,100370.50
2022-08-03T08:01:10.912Z,100377.13
2022-08-03T08:03:53.205Z,100365.78
2022-08-03T08:06:24.069Z,100368.00
2022-08-03T08:08:59.674Z,100376.44
2022-08-03T08:11:29.290Z,100381.59
2022-08-03T08:14:02.473Z,100370.75
2022-08-03T08:16:32.199Z,100372.41
2022-08-03T08:19:02.096Z,100368.28
2022-08-03T08:21:53.495Z,100368.75
2022-08-03T08:24:24.105Z,100368.78
2022-08-03T08:26:54.329Z,100367.75
2022-08-03T08:29:24.106Z,100367.75
2022-08-03T08:31:53.663Z,100364.97
2022-08-03T08:34:23.235Z,100367.47
2022-08-03T08:36:52.827Z,100369.28
2022-08-03T08:39:24.989Z,100362.88
2022-08-03T08:41:54.435Z,100356.97
2022-08-03T08:44:24.030Z,100357.09
2022-08-03T08:46:56.402Z,100361.88
2022-08-03T08:49:30.641Z,100354.94
2022-08-03T08:52:01.625Z,100356.03
2022-08-03T08:54:35.219Z,100360.66
2022-08-03T08:57:16.463Z,100360.19
2022-08-03T08:59:57.418Z,100364.88
2022-08-03T09:02:27.418Z,100370.66
2022-08-03T09:04:57.015Z,100356.69
2022-08-03T09:07:26.641Z,100361.88
2022-08-03T09:10:08.397Z,100362.53
2022-08-03T09:12:45.189Z,100364.13
2022-08-03T09:15:20.236Z,100363.91
2022-08-03T09:17:51.338Z,100362.34
2022-08-03T09:20:22.147Z,100355.13
2022-08-03T09:22:56.690Z,100364.84
2022-08-03T09:25:39.809Z,100362.66
2022-08-03T09:28:12.277Z,100360.25
2022-08-03T09:30:43.637Z,100367.34
2022-08-03T09:33:16.374Z,100365.25
2022-08-03T09:35:55.274Z,100360.25
2022-08-03T09:38:28.747Z,100360.66
2022-08-03T09:41:01.169Z,100363.81
2022-08-03T09:43:30.920Z,100355.75
2022-08-03T09:46:07.685Z,100351.97
2022-08-03T09:48:37.895Z,100359.56
2022-08-03T09:51:13.014Z,100354.16
2022-08-03T09:53:58.949Z,100360.66
2022-08-03T09:56:44.040Z,100348.66
2022-08-03T09:59:14.625Z,100354.09
2022-08-03T10:01:44.398Z,100345.59
2022-08-03T10:04:18.584Z,100356.00
2022-08-03T10:06:49.404Z,100353.47
2022-08-03T10:09:19.736Z,100348.41
2022-08-03T10:11:51.921Z,100345.44
2022-08-03T10:14:22.627Z,100344.31
2022-08-03T10:16:52.439Z,100341.75
2022-08-03T10:19:21.996Z,100339.63
2022-08-03T10:21:54.009Z,100337.16
2022-08-03T10:24:29.371Z,100345.50
2022-08-03T10:27:05.575Z,100332.59
2022-08-03T10:29:40.265Z,100336.22
2022-08-03T10:32:14.671Z,100328.81
2022-08-03T10:34:45.769Z,100326.41
2022-08-03T10:37:17.945Z,100315.59
2022-08-03T10:39:57.410Z,100324.00
2022-08-03T10:42:31.461Z,100315.78
2022-08-03T10:45:07.360Z,100325.66
2022-08-03T10:47:38.169Z,100325.78
2022-08-03T10:50:08.952Z,100314.44
2022-08-03T10:52:41.699Z,100310.38
2022-08-03T10:55:45.626Z,100308.53
2022-08-03T10:58:30.482Z,100305.66
2022-08-03T11:01:00.549Z,100297.31
2022-08-03T11:03:30.280Z,100299.69
2022-08-03T11:06:19.036Z,100292.13
2022-08-03T11:08:48.956Z,100291.53
2022-08-03T11:11:28.698Z,100297.47
2022-08-03T11:14:08.067Z,100288.03
2022-08-03T11:16:39.001Z,100287.88
2022-08-03T11:19:13.271Z,100288.31
2022-08-03T11:21:58.467Z,100285.59
2022-08-03T11:24:58.136Z,100285.16
2022-08-03T11:27:29.630Z,100287.28
2022-08-03T11:30:04.357Z,100286.66
2022-08-03T11:32:56.325Z,100279.47
2022-08-03T11:35:27.320Z,100290.03
2022-08-03T11:38:08.017Z,100286.00
2022-08-03T11:40:39.669Z,100282.84
2022-08-03T11:43:11.049Z,100280.97
2022-08-03T11:45:59.559Z,100278.66
2022-08-03T11:48:31.148Z,100283.09
2022-08-03T11:51:02.932Z,100280.13
2022-08-03T11:53:32.589Z,100278.00
2022-08-03T11:56:13.057Z,100276.13
2022-08-03T11:59:17.275Z,100273.38
2022-08-03T12:01:41.966Z,100289.63
2022-08-03T12:04:11.809Z,100275.25
2022-08-03T12:06:53.647Z,100278.66
2022-08-03T12:09:23.454Z,100281.84
2022-08-03T12:12:00.501Z,100278.25
2022-08-03T12:14:49.496Z,100278.44
2022-08-03T12:17:23.553Z,100270.44
2022-08-03T12:19:53.159Z,100276.56
2022-08-03T12:22:34.316Z,100265.59
2022-08-03T12:25:03.993Z,100263.69
2022-08-03T12:27:33.577Z,100264.75
2022-08-03T12:30:03.819Z,100261.41
2022-08-03T12:32:35.995Z,100263.50
2022-08-03T12:35:06.020Z,100261.19
2022-08-03T12:37:36.014Z,100264.38
2022-08-03T12:40:13.260Z,100265.19
2022-08-03T12:42:44.855Z,100258.03
2022-08-03T12:45:25.315Z,100263.72
2022-08-03T12:47:59.947Z,100259.69
2022-08-03T12:50:32.137Z,100257.19
2022-08-03T12:53:02.720Z,100258.44
2022-08-03T12:55:57.268Z,100260.97
2022-08-03T12:58:33.637Z,100243.25
2022-08-03T13:01:05.132Z,100264.34
2022-08-03T13:03:50.480Z,100251.69
2022-08-03T13:06:25.079Z,100256.97
2022-08-03T13:09:05.491Z,100246.63
2022-08-03T13:11:55.837Z,100247.25
2022-08-03T13:14:25.052Z,100250.63
2022-08-03T13:16:54.625Z,100242.59
2022-08-03T13:19:26.784Z,100243.69
2022-08-03T13:22:03.920Z,100243.47
2022-08-03T13:24:34.962Z,100244.06
2022-08-03T13:28:04.291Z,100244.50
2022-08-03T13:29:56.825Z,100248.13
2022-08-03T13:32:26.732Z,100237.38
2022-08-03T13:34:58.963Z,100243.47
2022-08-03T13:37:28.540Z,100248.56
2022-08-03T13:40:02.250Z,100240.16
2022-08-03T13:42:33.445Z,100238.28
2022-08-03T13:45:03.463Z,100236.34
2022-08-03T13:47:33.067Z,100228.16
2022-08-03T13:50:05.814Z,100229.84
2022-08-03T13:52:36.822Z,100219.50
2022-08-03T13:55:08.047Z,100221.41
2022-08-03T13:58:04.320Z,100221.56
2022-08-03T14:00:29.563Z,100220.53
2022-08-03T14:03:16.131Z,100210.63
2022-08-03T14:05:48.389Z,100219.47
2022-08-03T14:08:18.320Z,100210.81
2022-08-03T14:10:48.499Z,100210.00
2022-08-03T14:13:18.372Z,100206.19
2022-08-03T14:15:51.897Z,100205.13
2022-08-03T14:18:29.253Z,100201.53
2022-08-03T14:21:07.581Z,100193.47
2022-08-03T14:23:38.493Z,100196.84
2022-08-03T14:26:08.528Z,100196.41
2022-08-03T14:28:38.781Z,100205.66
2022-08-03T14:32:09.287Z,100199.56
2022-08-03T14:33:57.963Z,100198.47
2022-08-03T14:36:30.208Z,100201.63
2022-08-03T14:39:01.501Z,100191.69
2022-08-03T14:41:31.329Z,100185.97
2022-08-03T14:44:02.093Z,100182.38
2022-08-03T14:46:32.835Z,100178.13
2022-08-03T14:50:38.923Z,100178.50
2022-08-03T14:51:55.115Z,100178.28
2022-08-03T14:54:25.125Z,100169.88
2022-08-03T14:56:54.801Z,100167.94
2022-08-03T14:59:24.447Z,100168.19
2022-08-03T15:02:03.313Z,100173.88
2022-08-03T15:04:37.004Z,100165.88
2022-08-03T15:07:09.411Z,100177.03
2022-08-03T15:09:39.117Z,100165.03
2022-08-03T15:12:09.090Z,100163.31
2022-08-03T15:14:38.774Z,100161.25
2022-08-03T15:17:08.711Z,100159.19
2022-08-03T15:20:01.029Z,100156.44
2022-08-03T15:22:34.912Z,100146.56
2022-08-03T15:26:02.279Z,100145.97
2022-08-03T15:28:04.318Z,100152.06
2022-08-03T15:30:36.968Z,100133.50
2022-08-03T15:33:06.835Z,100146.97
2022-08-03T15:35:36.505Z,100141.53
2022-08-03T15:38:09.791Z,100142.41
2022-08-03T15:40:39.614Z,100139.53
2022-08-03T15:43:09.501Z,100142.09
2022-08-03T15:45:40.659Z,100141.47
2022-08-03T15:48:11.927Z,100130.31
2022-08-03T15:50:41.655Z,100135.16
2022-08-03T15:53:15.892Z,100129.28
2022-08-03T15:55:45.480Z,100136.63
2022-08-03T15:59:09.822Z,100130.31
2022-08-03T16:01:05.403Z,100131.34
2022-08-03T16:03:36.890Z,100142.69
2022-08-03T16:06:07.815Z,100137.41
2022-08-03T16:08:39.981Z,100133.16
2022-08-03T16:11:09.627Z,100128.94
2022-08-03T16:14:13.873Z,100126.81
2022-08-03T16:16:29.061Z,100126.81
2022-08-03T16:18:58.741Z,100136.31
2022-08-03T16:21:48.567Z,100137.41
2022-08-03T16:24:27.951Z,100129.66
2022-08-03T16:26:58.403Z,100129.06
2022-08-03T16:29:31.282Z,100119.38
2022-08-03T16:32:12.153Z,100129.69
2022-08-03T16:34:42.257Z,100121.31
2022-08-03T16:37:36.995Z,100120.69
2022-08-03T16:40:04.483Z,100124.72
2022-08-03T16:42:34.055Z,100124.09
2022-08-03T16:45:03.712Z,100126.22
2022-08-03T16:47:33.370Z,100125.78
2022-08-03T16:50:08.976Z,100124.53
2022-08-03T16:52:42.675Z,100121.56
2022-08-03T16:55:51.970Z,100119.25
2022-08-03T16:58:12.550Z,100123.47
2022-08-03T17:00:43.115Z,100116.94
2022-08-03T17:03:20.499Z,100123.69
2022-08-03T17:05:51.246Z,100133.56
2022-08-03T17:08:26.889Z,100122.84
2022-08-03T17:10:59.876Z,100122.34
2022-08-03T17:13:39.877Z,100120.88
2022-08-03T17:16:15.215Z,100121.88
2022-08-03T17:18:50.475Z,100119.53
2022-08-03T17:21:21.167Z,100116.56
2022-08-03T17:23:56.611Z,100119.06
2022-08-03T17:26:30.591Z,100114.84
2022-08-03T17:29:11.230Z,100123.44
2022-08-03T17:31:49.569Z,100115.84
2022-08-03T17:34:20.022Z,100117.31
2022-08-03T17:37:06.206Z,100114.34
2022-08-03T17:39:57.670Z,100114.97
2022-08-03T17:42:31.893Z,100116.63
2022-08-03T17:45:03.977Z,100119.13
2022-08-03T17:47:41.886Z,100113.63
2022-08-03T17:50:25.351Z,100113.56
2022-08-03T17:53:07.390Z,100116.44
2022-08-03T17:55:57.226Z,100110.09
2022-08-03T17:58:41.997Z,100121.81
2022-08-03T18:02:00.316Z,100123.47
2022-08-03T18:04:30.075Z,100123.41
2022-08-03T18:07:11.618Z,100121.50
2022-08-03T18:10:03.484Z,100121.44
2022-08-03T18:12:37.929Z,100124.94
2022-08-03T18:15:21.462Z,100128.28
2022-08-03T18:18:01.928Z,100116.28
2022-08-03T18:20:41.033Z,100121.63
2022-08-03T18:23:20.367Z,100118.84
2022-08-03T18:25:59.063Z,100116.91
2022-08-03T18:28:29.856Z,100117.03
2022-08-03T18:31:04.511Z,100124.50
2022-08-03T18:34:17.132Z,100121.25
2022-08-03T18:36:30.208Z,100119.03
2022-08-03T18:39:02.415Z,100126.00
2022-08-03T18:41:34.593Z,100125.84
2022-08-03T18:44:06.710Z,100125.97
2022-08-03T18:46:49.929Z,100128.16
2022-08-03T18:49:30.276Z,100130.97
2022-08-03T18:52:12.439Z,100124.56
2022-08-03T18:55:02.309Z,100124.03
2022-08-03T18:57:46.409Z,100123.44
2022-08-03T19:00:23.959Z,100123.53
2022-08-03T19:03:12.202Z,100117.72
2022-08-03T19:06:02.386Z,100119.03
2022-08-03T19:08:42.360Z,100126.59
2022-08-03T19:11:14.204Z,100121.03
2022-08-03T19:13:50.355Z,100118.88
2022-08-03T19:16:24.879Z,100121.28
2022-08-03T19:18:59.341Z,100122.69
2022-08-03T19:21:30.089Z,100131.59
2022-08-03T19:24:05.577Z,100133.31
2022-08-03T19:26:41.359Z,100137.81
2022-08-03T19:29:14.990Z,100142.28
2022-08-03T19:31:58.706Z,100148.63
2022-08-03T19:34:38.737Z,100146.13
2022-08-03T19:37:17.150Z,100147.72
2022-08-03T19:39:56.646Z,100145.50
2022-08-03T19:42:32.977Z,100141.78
2022-08-03T19:45:11.402Z,100143.53
2022-08-03T19:47:47.971Z,100154.44
2022-08-03T19:50:22.354Z,100140.22
2022-08-03T19:52:52.800Z,100145.69
2022-08-03T19:55:22.596Z,100143.72
2022-08-03T19:57:57.204Z,100149.81
2022-08-03T20:00:34.066Z,100140.53
2022-08-03T20:03:18.247Z,100139.34
2022-08-03T20:05:55.037Z,100139.03
2022-08-03T20:08:24.860Z,100140.38
2022-08-03T20:10:54.682Z,100134.59
2022-08-03T20:13:28.373Z,100137.69
2022-08-03T20:15:58.018Z,100131.91
2022-08-03T20:18:27.674Z,100127.69
2022-08-03T20:21:04.313Z,100128.56
2022-08-03T20:24:03.199Z,100131.44
2022-08-03T20:26:35.489Z,100140.59
2022-08-03T20:29:10.233Z,100136.34
2022-08-03T20:31:40.131Z,100132.47
2022-08-03T20:34:09.916Z,100136.56
2022-08-03T20:36:42.353Z,100141.47
2022-08-03T20:39:11.996Z,100139.75
2022-08-03T20:41:43.378Z,100141.81
2022-08-03T20:44:13.074Z,100141.31
2022-08-03T20:46:50.353Z,100144.38
2022-08-03T20:49:26.633Z,100149.97
2022-08-03T20:51:58.806Z,100142.84
2022-08-03T20:54:31.584Z,100144.91
2022-08-03T20:57:03.612Z,100139.78
2022-08-03T20:59:50.434Z,100135.41
2022-08-03T21:02:30.458Z,100136.75
2022-08-03T21:05:03.265Z,100134.53
2022-08-03T21:08:04.320Z,100135.88
2022-08-03T21:10:38.209Z,100131.31
2022-08-03T21:16:03.334Z,100123.69
2022-08-03T21:18:46.187Z,100121.81
2022-08-03T21:21:18.414Z,100121.13
2022-08-03T21:23:53.015Z,100121.13
2022-08-03T21:26:24.400Z,100116.72
2022-08-03T21:28:56.013Z,100125.88
2022-08-03T21:31:27.077Z,100117.41
2022-08-03T21:33:58.539Z,100124.84
2022-08-03T21:36:29.892Z,100117.72
2022-08-03T21:39:02.751Z,100119.09
2022-08-03T21:41:34.453Z,100120.13
2022-08-03T21:44:05.362Z,100119.63
2022-08-03T21:46:38.007Z,100117.44
2022-08-03T21:50:07.620Z,100119.28
2022-08-03T21:52:00.628Z,100114.88
2022-08-03T21:54:37.548Z,100111.31
2022-08-03T21:57:09.120Z,100110.47
2022-08-03T21:59:41.542Z,100110.66
2022-08-03T22:02:24.250Z,100116.91
2022-08-03T22:04:56.350Z,100117.25
2022-08-03T22:07:27.605Z,100109.59
2022-08-03T22:10:01.607Z,100104.88
2022-08-03T22:12:33.439Z,100106.22
2022-08-03T22:15:04.717Z,100104.19
2022-08-03T22:17:55.917Z,100106.56
2022-08-03T22:20:26.398Z,100107.22
2022-08-03T22:22:57.974Z,100110.94
2022-08-03T22:25:32.993Z,100107.22
2022-08-03T22:28:05.056Z,100109.75
2022-08-03T22:30:34.756Z,100114.16
2022-08-03T22:33:05.214Z,100111.28
2022-08-03T22:35:47.407Z,100111.63
2022-08-03T22:38:18.602Z,100109.59
2022-08-03T22:40:52.393Z,100113.16
2022-08-03T22:43:25.709Z,100105.53
2022-08-03T22:46:10.662Z,100110.47
2022-08-03T22:48:42.163Z,100099.47
2022-08-03T22:51:12.077Z,100102.53
2022-08-03T22:53:42.043Z,100099.63
2022-08-03T22:56:14.722Z,100102.53
2022-08-03T22:58:44.318Z,100107.06
2022-08-03T23:01:14.734Z,100098.09
2022-08-03T23:03:58.608Z,100098.09
2022-08-03T23:06:35.573Z,100101.47
2022-08-03T23:09:07.743Z,100095.06
2022-08-03T23:11:45.345Z,100094.03
2022-08-03T23:14:17.578Z,100097.59
2022-08-03T23:16:48.769Z,100087.94
2022-08-03T23:19:25.183Z,100089.16
2022-08-03T23:22:02.747Z,100089.63
2022-08-03T23:24:36.455Z,100089.97
2022-08-03T23:27:10.383Z,100093.88
2022-08-03T23:29:41.865Z,100090.81
2022-08-03T23:32:11.461Z,100095.72
2022-08-03T23:34:54.872Z,100097.06
2022-08-03T23:37:24.765Z,100096.38
2022-08-03T23:39:55.463Z,100092.84
2022-08-03T23:42:28.409Z,100092.84
2022-08-03T23:45:06.032Z,100090.41
2022-08-03T23:47:46.446Z,100090.09
2022-08-03T23:50:17.223Z,100091.59
2022-08-03T23:52:55.947Z,100088.88
2022-08-03T23:55:38.648Z,100087.19
2022-08-03T23:58:15.942Z,100088.19
